• Join FlightAware (Why Join?)
  • Login
  • US Flag 
03:17PM EST


 

Airport Tracker/Info


-or-


 

Live Flight TrackerFlight Track Log ✈ EGF4393 ✈ 01-May-2013 ✈ KORD - KCWA

Flight Track Log - Related Links

Times and Time Zones

All times are in EDT time to prevent confusion due to time zone crossing. See the EGF4393 flight status page for this flight to view local times or setup timezone preferences in your user account.

Time Position Orientation Groundspeed Altitude Reporting Facility
EDT Latitude Longitude Course Direction KTS MPH feet Rate Location/Type
03:44PM 41.9333 -87.9167 346° North 167 192 2,300  Level Chicago TRACON
03:45PM 41.9000 -87.9000 160° South 230 265 4,600 2,340 Climbing Chicago TRACON
03:46PM 41.9500 -87.8500 37° Northeast 283 326 7,100 2,400 Climbing Chicago TRACON
03:47PM 42.3577 -88.0205 340° North  Level FlightAware Approximate
03:47PM 42.0333 -87.8500 360° North 336 387 9,500  Level Chicago TRACON
03:48PM 42.4541 -88.0575 352° North  Level FlightAware Approximate
03:48PM 42.1383 -87.8492 360° North 333 383 11,600  Level Chicago Center
03:49PM 42.5494 -88.0942 346° North  Level FlightAware Approximate
03:49PM 42.2419 -87.8478 North 370 426 12,800  Level Chicago Center
03:50PM 42.3542 -87.8800 348° North 404 465 13,900 1,020 Climbing Chicago Center
03:51PM 42.4544 -87.9528 332° Northwest 409 471 15,000 1,320 Climbing Chicago Center
03:52PM 42.5736 -88.0375 332° Northwest 412 474 16,700 1,500 Climbing Chicago Center
03:53PM 42.6744 -88.1083 333° Northwest 408 470 18,200 1,500 Climbing Chicago Center
03:54PM 42.7750 -88.1814 332° Northwest 408 470 19,900 1,620 Climbing Chicago Center
03:55PM 42.8758 -88.2528 333° Northwest 408 470 21,600 960 Climbing Chicago Center
03:56PM 42.9792 -88.3275 332° Northwest 417 480 22,000 180 Climbing Chicago Center
03:57PM 43.1100 -88.4211 332° Northwest 450 518 22,000  Level Chicago Center
03:58PM 43.2206 -88.5011 332° Northwest 448 516 22,000  Level Chicago Center
03:59PM 43.3306 -88.5825 332° Northwest 443 510 22,000 -300 Level Chicago Center
04:00PM 43.4422 -88.6644 332° Northwest 443 510 21,500 -840 Descending Chicago Center
04:01PM 43.5500 -88.7433 332° Northwest 434 499 20,300 -780 Descending Chicago Center
04:02PM 43.6567 -88.8211 332° Northwest 431 496 20,000 -480 Descending Chicago Center
04:03PM 43.7281 -88.8728 332° Northwest 432 497 19,600 -1,080 Descending Minneapolis Center
04:03PM 43.7622 -88.8992 331° Northwest 429 494 18,900 -1,980 Descending Chicago Center
04:04PM 43.8328 -88.9494 333° Northwest 427 491 17,600 -2,100 Descending Minneapolis Center
04:05PM 43.9319 -89.0247 331° Northwest 412 474 15,500 -1,800 Descending Minneapolis Center
04:06PM 44.0428 -89.1100 331° Northwest 407 468 13,900 -840 Descending Minneapolis Center
04:07PM 44.1400 -89.1817 332° Northwest 407 468 13,900  Level Minneapolis Center
04:08PM 44.2356 -89.2539 332° Northwest 377 434 13,900 -540 Level Minneapolis Center
04:09PM 44.3261 -89.3239 331° Northwest 360 414 12,900 -1,200 Descending Minneapolis Center
04:10PM 44.4039 -89.3917 328° Northwest 326 375 11,200 -900 Descending Minneapolis Center
04:11PM 44.5072 -89.4708 331° Northwest 366 421 10,900 -1,380 Descending Minneapolis Center
04:12PM 44.5867 -89.5289 333° Northwest 304 350 8,400 -2,940 Descending Minneapolis Center
04:13PM 44.6589 -89.5836 332° Northwest 285 328 4,900 -3,420 Descending Minneapolis Center